Time;durP1;ratioP1;P1;durP2;ratioP2;P2;SDS_P1;SDS_P2;PMS_P1;PMS_P2;Temp;Humidity;BMP_temperature;BMP_pressure;BME280_temperature;BME280_humidity;BME280_pressure;Samples;Min_cycle;Max_cycle;Signal;HPM_P1;HPM_P2
2022/05/02 00:00:43;;;;;;;21.92;12.63;;;;;;;6.25;95.22;102004.00;6336769;22;20007;-75
2022/05/02 00:03:09;;;;;;;18.05;12.02;;;;;;;6.24;95.20;102005.84;6302110;22;20061;-76
2022/05/02 00:05:35;;;;;;;22.33;13.13;;;;;;;6.17;95.52;102002.13;6308992;22;20369;-77
2022/05/02 00:08:00;;;;;;;20.13;12.57;;;;;;;6.14;96.40;102003.28;6309049;22;20015;-77
2022/05/02 00:10:26;;;;;;;23.50;14.80;;;;;;;6.02;97.20;101991.25;6328619;22;20006;-76
2022/05/02 00:12:51;;;;;;;22.38;13.45;;;;;;;5.97;96.85;101993.53;6308938;22;20052;-76
2022/05/02 00:15:16;;;;;;;19.77;13.60;;;;;;;6.01;96.83;101996.72;6329767;22;20072;-76
2022/05/02 00:17:57;;;;;;;22.02;14.75;;;;;;;6.04;96.18;101991.09;6308896;22;20038;-76
2022/05/02 00:20:43;;;;;;;21.10;14.23;;;;;;;6.06;96.26;101997.91;6308432;22;20432;-77
2022/05/02 00:23:09;;;;;;;25.02;14.80;;;;;;;6.06;95.93;101989.09;6303701;22;20045;-77
2022/05/02 00:25:35;;;;;;;22.42;14.95;;;;;;;6.03;96.33;101987.59;6336620;22;20002;-77
2022/05/02 00:28:02;;;;;;;25.73;14.43;;;;;;;6.00;96.90;101979.13;6329694;22;20023;-76
2022/05/02 00:30:28;;;;;;;18.77;13.45;;;;;;;5.99;96.92;101980.09;6308930;22;20327;-77
2022/05/02 00:32:55;;;;;;;21.80;14.35;;;;;;;5.87;97.10;101974.19;6329610;22;20420;-76
2022/05/02 00:35:21;;;;;;;20.92;14.55;;;;;;;5.81;97.19;101980.13;6336579;22;20530;-76
2022/05/02 00:37:47;;;;;;;21.00;14.13;;;;;;;5.73;97.14;101969.44;6336627;22;20089;-76
2022/05/02 00:40:15;;;;;;;24.48;14.18;;;;;;;5.80;97.41;101978.47;6329750;22;20045;-77
2022/05/02 00:42:43;;;;;;;20.75;13.98;;;;;;;5.74;97.27;101973.75;6309335;22;20324;-76
2022/05/02 00:45:09;;;;;;;20.52;14.45;;;;;;;5.68;98.61;101967.25;6329867;22;20037;-76
2022/05/02 00:47:35;;;;;;;18.63;12.88;;;;;;;5.66;98.02;101974.53;6308606;22;20034;-76
2022/05/02 00:50:06;;;;;;;18.27;12.38;;;;;;;5.67;97.75;101976.19;6336497;22;20074;-76
2022/05/02 00:52:31;;;;;;;24.42;15.07;;;;;;;5.64;98.48;101976.50;6319606;22;20025;-76
2022/05/02 00:54:58;;;;;;;23.67;15.15;;;;;;;5.60;98.82;101978.63;6308746;22;20034;-76
2022/05/02 00:57:24;;;;;;;20.08;13.95;;;;;;;5.58;98.82;101974.47;6328213;22;20072;-76
2022/05/02 00:59:49;;;;;;;23.50;14.38;;;;;;;5.58;99.02;101974.47;6336419;22;20011;-77
2022/05/02 01:02:15;;;;;;;19.17;13.50;;;;;;;5.53;99.48;101964.34;6332233;22;20014;-76
2022/05/02 01:04:42;;;;;;;18.48;12.27;;;;;;;5.52;99.15;101967.97;6334008;22;20017;-76
2022/05/02 01:07:19;;;;;;;18.88;12.13;;;;;;;5.49;99.77;101973.59;6336393;22;20006;-77
2022/05/02 01:09:46;;;;;;;18.65;12.30;;;;;;;5.46;99.35;101970.38;6329456;22;20343;-77
2022/05/02 01:12:16;;;;;;;19.58;12.82;;;;;;;5.39;99.83;101966.66;6336336;22;20080;-76
2022/05/02 01:14:44;;;;;;;19.15;13.15;;;;;;;5.38;99.48;101970.31;6302249;22;20424;-76
2022/05/02 01:17:10;;;;;;;21.05;13.85;;;;;;;5.36;99.77;101964.34;6336508;22;20007;-76
2022/05/02 01:19:36;;;;;;;22.48;14.20;;;;;;;5.36;99.55;101969.63;6336317;22;20389;-76
2022/05/02 01:22:03;;;;;;;21.95;13.88;;;;;;;5.33;99.61;101978.72;6329949;22;20015;-76
2022/05/02 01:24:43;;;;;;;20.88;13.80;;;;;;;5.29;99.63;101966.75;6336344;22;20331;-77
2022/05/02 01:27:10;;;;;;;24.65;13.95;;;;;;;5.27;99.91;101966.91;6329552;22;20336;-76
2022/05/02 01:29:37;;;;;;;22.42;14.15;;;;;;;5.23;100.00;101967.38;6336141;22;20003;-76
2022/05/02 01:32:08;;;;;;;19.73;12.98;;;;;;;5.19;100.00;101964.16;6328399;22;20094;-76
2022/05/02 01:34:34;;;;;;;21.63;14.13;;;;;;;5.17;100.00;101963.47;6336172;22;20007;-77
2022/05/02 01:37:04;;;;;;;18.25;12.77;;;;;;;5.12;100.00;101960.47;6336096;22;20075;-76
2022/05/02 01:39:29;;;;;;;19.52;12.82;;;;;;;5.13;100.00;101955.97;6329270;22;20455;-77
2022/05/02 01:41:59;;;;;;;17.70;12.10;;;;;;;5.12;100.00;101956.97;6336138;22;20010;-77
2022/05/02 01:44:24;;;;;;;16.52;12.00;;;;;;;5.06;100.00;101955.75;6301875;22;20508;-77
2022/05/02 01:46:49;;;;;;;17.25;11.85;;;;;;;5.00;100.00;101948.41;6308256;22;20003;-77
2022/05/02 01:49:14;;;;;;;20.38;13.20;;;;;;;5.00;100.00;101959.03;6336130;22;20010;-76
2022/05/02 01:51:40;;;;;;;18.87;12.57;;;;;;;4.93;100.00;101947.34;6329228;22;20128;-76
2022/05/02 01:54:05;;;;;;;20.08;12.52;;;;;;;4.91;100.00;101949.28;6336021;22;20566;-76
2022/05/02 01:56:30;;;;;;;18.15;11.93;;;;;;;4.91;100.00;101951.94;6329107;22;20082;-76
2022/05/02 01:58:56;;;;;;;16.92;11.25;;;;;;;4.84;100.00;101943.75;6335908;22;20124;-77
2022/05/02 02:01:21;;;;;;;18.02;12.20;;;;;;;4.79;100.00;101939.91;6332984;22;20014;-76
2022/05/02 02:03:46;;;;;;;15.80;11.30;;;;;;;4.78;100.00;101941.72;6332234;22;20015;-76
2022/05/02 02:06:12;;;;;;;15.48;10.75;;;;;;;4.76;100.00;101942.84;6334162;22;20013;-76
2022/05/02 02:08:37;;;;;;;15.85;11.18;;;;;;;4.79;100.00;101947.84;6329123;22;20007;-76
2022/05/02 02:11:05;;;;;;;17.73;10.85;;;;;;;4.73;100.00;101941.34;6335583;22;20018;-76
2022/05/02 02:13:31;;;;;;;17.80;11.25;;;;;;;4.67;100.00;101936.63;6328909;22;20175;-77
2022/05/02 02:15:56;;;;;;;16.05;10.98;;;;;;;4.71;100.00;101945.94;6335976;22;20420;-76
2022/05/02 02:18:22;;;;;;;15.68;11.73;;;;;;;4.68;100.00;101943.59;6336098;22;20074;-76
2022/05/02 02:20:49;;;;;;;16.67;11.32;;;;;;;4.65;100.00;101950.03;6328832;22;20070;-76
2022/05/02 02:23:15;;;;;;;22.90;12.63;;;;;;;4.65;100.00;101944.75;6335682;22;20010;-76
2022/05/02 02:25:41;;;;;;;15.60;10.85;;;;;;;4.59;100.00;101940.00;6328696;22;20022;-76
2022/05/02 02:28:07;;;;;;;15.88;10.50;;;;;;;4.57;100.00;101947.28;6308028;22;20056;-76
2022/05/02 02:31:16;;;;;;;15.70;10.93;;;;;;;4.57;100.00;101949.91;6335606;22;20003;-77
2022/05/02 02:33:42;;;;;;;19.67;12.82;;;;;;;4.53;100.00;101937.94;6335489;22;20003;-77
2022/05/02 02:36:07;;;;;;;16.05;10.95;;;;;;;4.46;100.00;101934.22;6335645;22;20007;-76
2022/05/02 02:38:32;;;;;;;15.60;10.10;;;;;;;4.48;100.00;101945.50;6301535;22;20087;-76
2022/05/02 02:40:58;;;;;;;17.20;11.05;;;;;;;4.46;100.00;101942.19;6335496;22;20014;-76
2022/05/02 02:43:23;;;;;;;19.48;11.63;;;;;;;4.46;100.00;101939.53;6301841;22;20017;-77
2022/05/02 02:45:48;;;;;;;18.75;12.00;;;;;;;4.41;100.00;101933.00;6337236;22;20011;-76
2022/05/02 02:48:14;;;;;;;16.70;11.25;;;;;;;4.40;100.00;101932.19;6306103;22;20021;-77
2022/05/02 02:50:39;;;;;;;15.50;10.80;;;;;;;4.39;100.00;101937.63;6333713;22;20323;-77
2022/05/02 02:53:04;;;;;;;17.13;12.18;;;;;;;4.35;100.00;101931.78;6336873;22;20017;-77
2022/05/02 02:55:30;;;;;;;14.10;10.52;;;;;;;4.34;100.00;101924.81;6330228;22;20420;-76
2022/05/02 02:57:55;;;;;;;18.30;11.68;;;;;;;4.26;100.00;101924.69;6337024;22;20295;-77
2022/05/02 03:00:21;;;;;;;17.13;11.55;;;;;;;4.21;100.00;101916.38;6330224;22;20015;-76
2022/05/02 03:02:48;;;;;;;18.13;11.15;;;;;;;4.20;100.00;101917.34;6337295;22;20451;-76
2022/05/02 03:07:59;;;;;;;19.15;12.25;;;;;;;4.16;100.00;101910.69;6326770;22;20049;-77
2022/05/02 03:10:25;;;;;;;14.82;11.18;;;;;;;4.11;100.00;101908.47;6336958;22;20003;-76
2022/05/02 03:12:51;;;;;;;16.73;11.25;;;;;;;4.10;100.00;101916.56;6330077;22;20060;-77
2022/05/02 03:15:16;;;;;;;19.27;11.57;;;;;;;4.07;100.00;101911.56;6337179;22;20007;-77
2022/05/02 03:17:41;;;;;;;14.38;10.07;;;;;;;4.00;100.00;101906.00;6329954;22;20321;-76
2022/05/02 03:20:08;;;;;;;20.60;12.30;;;;;;;4.01;100.00;101913.78;6336970;22;20003;-76
2022/05/02 03:22:33;;;;;;;19.17;12.40;;;;;;;3.96;100.00;101905.47;6309178;22;20003;-77
2022/05/02 03:24:58;;;;;;;19.73;12.07;;;;;;;3.98;100.00;101914.09;6302787;22;20007;-77
2022/05/02 03:27:23;;;;;;;18.08;11.77;;;;;;;3.95;100.00;101909.09;6309312;22;20009;-76
2022/05/02 03:29:49;;;;;;;20.05;12.15;;;;;;;3.92;100.00;101904.09;6329977;22;20089;-77
2022/05/02 03:35:36;;;;;;;19.55;12.75;;;;;;;3.91;100.00;101907.72;6336902;22;20017;-77
2022/05/02 03:38:01;;;;;;;20.33;11.95;;;;;;;3.82;100.00;101905.94;6336839;22;20006;-76
2022/05/02 03:40:26;;;;;;;17.25;11.43;;;;;;;3.79;100.00;101903.56;6334782;22;20002;-77
2022/05/02 03:42:52;;;;;;;15.48;10.48;;;;;;;3.74;100.00;101898.69;6332121;22;20017;-76
2022/05/02 03:45:17;;;;;;;18.33;10.75;;;;;;;3.73;100.00;101906.78;6336790;22;20063;-76
2022/05/02 03:47:42;;;;;;;21.05;11.68;;;;;;;3.70;100.00;101896.47;6302491;22;20086;-77
2022/05/02 03:50:08;;;;;;;17.73;11.07;;;;;;;3.72;100.00;101905.09;6336743;22;19999;-77
2022/05/02 03:52:33;;;;;;;18.40;12.23;;;;;;;3.75;100.00;101904.81;6329666;22;20007;-77
2022/05/02 03:54:59;;;;;;;18.00;11.82;;;;;;;3.63;100.00;101892.75;6308450;22;20003;-77
2022/05/02 03:57:24;;;;;;;16.02;11.18;;;;;;;3.62;100.00;101893.72;6336658;22;20007;-77
2022/05/02 03:59:49;;;;;;;19.00;12.02;;;;;;;3.63;100.00;101909.44;6329860;22;20337;-77
2022/05/02 04:02:15;;;;;;;19.23;12.25;;;;;;;3.65;100.00;101906.66;6309103;22;20030;-77
2022/05/02 04:04:40;;;;;;;18.88;12.50;;;;;;;3.62;100.00;101907.78;6302505;22;20014;-77
2022/05/02 04:07:06;;;;;;;21.42;13.18;;;;;;;3.65;100.00;101914.59;6336699;22;20394;-77
2022/05/02 04:12:53;;;;;;;22.67;13.85;;;;;;;3.63;100.00;101909.44;6336869;22;20048;-77
2022/05/02 04:15:18;;;;;;;21.65;12.90;;;;;;;3.60;100.00;101914.19;6334166;22;20479;-77
2022/05/02 04:17:43;;;;;;;19.92;13.23;;;;;;;3.60;100.00;101914.19;6332403;22;20092;-76
2022/05/02 04:20:10;;;;;;;18.75;12.45;;;;;;;3.61;100.00;101913.22;6336741;22;20014;-76
2022/05/02 04:22:36;;;;;;;19.48;12.60;;;;;;;3.60;100.00;101915.03;6329648;22;20022;-76
2022/05/02 04:25:02;;;;;;;24.92;13.82;;;;;;;3.56;100.00;101907.53;6336686;22;20017;-77
2022/05/02 04:27:28;;;;;;;22.98;13.15;;;;;;;3.54;100.00;101907.66;6330229;22;20487;-76
2022/05/02 04:29:53;;;;;;;19.70;11.85;;;;;;;3.64;100.00;101918.22;6336563;22;20078;-77
2022/05/02 04:32:19;;;;;;;18.48;12.02;;;;;;;3.64;100.00;101900.53;6336436;22;20485;-77
2022/05/02 04:34:44;;;;;;;19.70;12.65;;;;;;;3.79;100.00;101903.56;6302269;22;20010;-76
2022/05/02 04:37:09;;;;;;;20.10;13.13;;;;;;;3.92;100.00;101904.09;6336520;22;20060;-76
2022/05/02 04:39:35;;;;;;;20.10;13.15;;;;;;;4.09;100.00;101907.78;6328427;22;20514;-77
2022/05/02 04:42:00;;;;;;;18.10;12.10;;;;;;;4.21;100.00;101908.44;6336489;22;20013;-77
2022/05/02 04:44:25;;;;;;;19.90;12.82;;;;;;;4.32;100.00;101906.41;6305737;22;20090;-77
2022/05/02 04:46:51;;;;;;;20.88;13.15;;;;;;;4.51;100.00;101915.25;6305373;22;20011;-77
2022/05/02 04:49:16;;;;;;;27.13;15.00;;;;;;;4.76;100.00;101908.41;6308697;22;20435;-77
2022/05/02 04:51:41;;;;;;;27.55;14.52;;;;;;;4.94;100.00;101904.81;6302286;22;20010;-77
2022/05/02 04:54:07;;;;;;;27.27;13.82;;;;;;;5.12;100.00;101906.59;6336328;22;20029;-77
2022/05/02 04:56:32;;;;;;;23.05;14.05;;;;;;;5.23;100.00;101909.88;6329360;22;20021;-77
2022/05/02 04:58:57;;;;;;;25.45;13.88;;;;;;;5.39;100.00;101911.81;6336397;22;20362;-76
2022/05/02 05:01:23;;;;;;;25.85;14.07;;;;;;;5.72;100.00;101922.66;6336272;22;20007;-77
2022/05/02 05:03:48;;;;;;;28.60;14.85;;;;;;;6.03;100.00;101909.78;6329608;22;20061;-76
2022/05/02 05:06:13;;;;;;;25.20;14.43;;;;;;;6.46;99.78;101914.97;6308626;22;20011;-77
2022/05/02 05:08:40;;;;;;;30.98;15.38;;;;;;;6.93;98.43;101911.75;6329432;22;20056;-76
2022/05/02 05:11:12;;;;;;;30.85;14.38;;;;;;;7.46;96.20;101921.94;6336309;22;20007;-77
2022/05/02 05:16:20;;;;;;;41.00;15.38;;;;;;;7.98;94.75;101923.38;6304103;22;20007;-77
2022/05/02 05:16:39;;;;;;;40.50;16.23;;;;;;;8.48;93.01;101915.06;6336022;22;20105;-77
2022/05/02 05:19:43;;;;;;;34.53;15.45;;;;;;;8.89;94.08;101917.50;6336271;22;20034;-77
2022/05/02 05:22:44;;;;;;;29.63;15.25;;;;;;;9.45;91.58;101923.44;6336303;22;20009;-77
2022/05/02 05:25:16;;;;;;;30.02;16.23;;;;;;;10.03;86.75;101927.22;6333555;22;20408;-77
2022/05/02 05:27:47;;;;;;;26.38;15.25;;;;;;;10.55;84.88;101924.47;6333866;22;20343;-77
2022/05/02 05:30:15;;;;;;;42.35;15.80;;;;;;;10.95;82.57;101925.75;6336183;22;19999;-77
2022/05/02 05:33:00;;;;;;;27.30;16.30;;;;;;;11.33;82.01;101910.28;6329215;22;20013;-77
2022/05/02 05:36:02;;;;;;;29.90;17.38;;;;;;;11.94;83.20;101918.59;6336110;22;20340;-77
2022/05/02 05:38:37;;;;;;;31.75;17.25;;;;;;;12.46;76.84;101919.09;6301837;22;20075;-77
2022/05/02 05:44:59;;;;;;;27.33;18.02;;;;;;;13.34;75.96;101923.47;6336171;22;20111;-77
2022/05/02 05:47:43;;;;;;;22.67;16.77;;;;;;;13.78;70.32;101920.16;6335976;22;20105;-77
2022/05/02 05:50:29;;;;;;;26.95;16.30;;;;;;;14.14;69.30;101922.34;6301857;22;20458;-77
2022/05/02 05:53:26;;;;;;;24.33;17.85;;;;;;;14.67;69.77;101929.44;6335929;22;20002;-77
2022/05/02 05:56:02;;;;;;;23.15;17.15;;;;;;;15.09;65.81;101933.38;6329074;22;20038;-77
2022/05/02 05:58:52;;;;;;;26.60;18.23;;;;;;;15.46;64.75;101926.25;6335874;22;19998;-77
2022/05/02 06:01:35;;;;;;;25.08;16.73;;;;;;;15.87;62.91;101927.56;6301779;22;20010;-77
2022/05/02 06:04:04;;;;;;;28.02;17.10;;;;;;;16.39;59.68;101931.59;6336508;22;20021;-77
2022/05/02 06:06:31;;;;;;;27.55;17.95;;;;;;;16.89;55.66;101934.09;6301618;22;20050;-77
2022/05/02 06:08:58;;;;;;;24.20;18.38;;;;;;;17.34;54.63;101931.75;6335673;22;19999;-77
2022/05/02 06:11:25;;;;;;;25.98;18.67;;;;;;;17.84;53.03;101924.09;6334354;22;20010;-77
2022/05/02 06:13:53;;;;;;;23.27;18.15;;;;;;;18.24;50.62;101932.31;6330573;22;20013;-77
2022/05/02 06:19:09;;;;;;;26.77;17.58;;;;;;;19.10;47.25;101932.38;6329942;22;20018;-77
2022/05/02 06:21:34;;;;;;;29.35;17.67;;;;;;;19.64;46.63;101933.56;6337447;22;20423;-76
2022/05/02 06:24:04;;;;;;;21.60;17.33;;;;;;;20.08;45.89;101928.25;6330396;22;20081;-77
2022/05/02 06:26:29;;;;;;;23.17;16.52;;;;;;;20.38;44.22;101936.00;6309581;22;20013;-77
2022/05/02 06:28:54;;;;;;;29.52;17.75;;;;;;;20.75;43.19;101932.63;6306848;22;20085;-77
2022/05/02 06:31:23;;;;;;;23.40;17.83;;;;;;;21.22;42.80;101938.28;6305461;22;20017;-77
2022/05/02 06:33:50;;;;;;;23.20;18.48;;;;;;;21.52;41.81;101935.84;6337272;22;20229;-77
2022/05/02 06:39:56;;;;;;;26.70;17.70;;;;;;;22.26;40.39;101943.16;6337284;22;20102;-77
2022/05/02 06:42:45;;;;;;;22.30;16.98;;;;;;;22.77;39.14;101941.44;6303157;22;20020;-77
2022/05/02 06:45:31;;;;;;;26.98;16.55;;;;;;;23.44;37.96;101932.31;6337210;22;20052;-78
2022/05/02 06:48:10;;;;;;;23.77;17.15;;;;;;;23.85;36.70;101931.44;6302882;22;20082;-77
2022/05/02 06:50:38;;;;;;;22.48;16.27;;;;;;;24.28;33.20;101938.19;6309602;22;20112;-77
2022/05/02 06:53:27;;;;;;;18.95;15.48;;;;;;;24.67;33.86;101935.56;6330061;22;20074;-77
2022/05/02 06:56:17;;;;;;;19.02;15.02;;;;;;;25.08;33.99;101930.66;6309522;22;20006;-77
2022/05/02 06:59:06;;;;;;;19.80;16.15;;;;;;;25.67;32.43;101940.59;6302842;22;20038;-77
2022/05/02 07:01:48;;;;;;;17.67;15.13;;;;;;;25.97;30.83;101939.47;6337056;22;20431;-77
2022/05/02 07:04:39;;;;;;;20.52;14.82;;;;;;;26.23;31.22;101935.34;6330440;22;20086;-77
2022/05/02 07:07:34;;;;;;;22.73;16.13;;;;;;;26.53;30.17;101936.09;6336978;22;20034;-78
2022/05/02 07:10:28;;;;;;;19.83;15.93;;;;;;;27.11;29.71;101935.81;6330159;22;20527;-77
2022/05/02 07:13:00;;;;;;;18.60;14.30;;;;;;;27.39;28.97;101937.56;6306566;22;20439;-78
2022/05/02 07:15:40;;;;;;;16.63;14.27;;;;;;;27.73;28.22;101934.50;6306831;22;20557;-78
2022/05/02 07:18:10;;;;;;;17.77;14.18;;;;;;;27.83;25.72;101932.72;6336236;22;20044;-77
2022/05/02 07:21:00;;;;;;;22.88;15.07;;;;;;;28.13;26.87;101937.63;6336907;22;20011;-77
2022/05/02 07:24:01;;;;;;;21.73;14.95;;;;;;;28.71;27.99;101930.63;6330135;22;20428;-78
2022/05/02 07:26:27;;;;;;;21.67;14.02;;;;;;;28.94;24.75;101924.06;6230869;22;20011;-78
2022/05/02 07:28:59;;;;;;;14.55;12.48;;;;;;;29.37;24.88;101932.63;6330015;22;20010;-78
2022/05/02 07:31:24;;;;;;;135.23;22.20;;;;;;;29.55;24.03;101939.94;6336313;22;20007;-78
2022/05/02 07:33:54;;;;;;;18.90;13.73;;;;;;;29.77;23.09;101928.00;6329943;22;20011;-78
2022/05/02 07:36:22;;;;;;;16.27;12.98;;;;;;;30.57;22.82;101933.47;6336783;22;20073;-77
2022/05/02 07:42:10;;;;;;;14.55;12.10;;;;;;;31.13;22.01;101932.56;6337125;22;20091;-78
2022/05/02 07:44:38;;;;;;;13.88;11.55;;;;;;;31.38;21.10;101940.03;6332110;22;19999;-78
2022/05/02 07:47:06;;;;;;;15.68;12.23;;;;;;;31.66;21.18;101934.09;6335705;22;20065;-78
2022/05/02 07:49:34;;;;;;;13.68;10.77;;;;;;;31.77;20.53;101934.56;6336646;22;20446;-78
2022/05/02 07:52:02;;;;;;;14.32;10.90;;;;;;;31.91;19.84;101930.44;6302676;22;20090;-77
2022/05/02 07:54:30;;;;;;;13.68;10.90;;;;;;;32.03;19.75;101933.31;6336843;22;20002;-77
2022/05/02 07:57:02;;;;;;;18.90;12.00;;;;;;;32.21;19.81;101930.47;6329730;22;20010;-77
2022/05/02 07:59:36;;;;;;;17.05;12.55;;;;;;;32.46;20.58;101939.78;6336817;22;20003;-78
2022/05/02 08:02:03;;;;;;;16.45;12.10;;;;;;;32.77;19.39;101936.63;6335662;22;20003;-78
2022/05/02 08:04:28;;;;;;;15.15;12.68;;;;;;;33.10;19.08;101931.97;6331647;22;20427;-78
2022/05/02 08:07:03;;;;;;;14.82;12.25;;;;;;;33.46;19.39;101930.47;6337095;22;20013;-78
2022/05/02 08:09:56;;;;;;;16.95;11.63;;;;;;;33.20;18.35;101939.03;6329944;22;20010;-78
2022/05/02 08:15:59;;;;;;;19.77;12.40;;;;;;;33.18;18.29;101930.25;6337029;22;20049;-77
2022/05/02 08:18:33;;;;;;;13.32;11.50;;;;;;;32.98;17.83;101936.66;6336761;22;20003;-77
2022/05/02 08:21:18;;;;;;;16.50;11.25;;;;;;;32.99;17.70;101930.78;6302467;22;20086;-78
2022/05/02 08:27:17;;;;;;;15.65;12.00;;;;;;;32.11;18.30;101917.81;6329743;22;20098;-77
2022/05/02 08:29:54;;;;;;;14.68;11.73;;;;;;;31.57;19.50;101931.38;6336545;22;20017;-77
2022/05/02 08:32:41;;;;;;;13.07;11.32;;;;;;;31.93;19.27;101932.88;6302357;22;20026;-78
2022/05/02 08:35:16;;;;;;;14.30;11.07;;;;;;;32.21;19.30;101928.50;6336476;22;20014;-78
2022/05/02 08:38:00;;;;;;;11.93;10.15;;;;;;;32.18;19.16;101929.19;6331843;22;20427;-77
2022/05/02 08:40:25;;;;;;;14.25;10.50;;;;;;;32.71;17.29;101929.69;6336386;22;19995;-78
2022/05/02 08:43:20;;;;;;;15.97;9.50;;;;;;;33.01;18.21;101934.00;6308900;22;20010;-78
2022/05/02 08:46:27;;;;;;;12.68;10.77;;;;;;;33.73;18.20;101931.81;6319535;22;20003;-78
2022/05/02 08:49:33;;;;;;;14.35;10.07;;;;;;;33.66;17.41;101928.78;6308725;22;20018;-78
2022/05/02 08:52:01;;;;;;;10.55;8.88;;;;;;;33.94;16.88;101926.19;6305885;22;20010;-78
2022/05/02 08:54:37;;;;;;;13.32;11.13;;;;;;;33.77;16.00;101929.94;6336450;22;20003;-78
2022/05/02 08:57:23;;;;;;;13.52;10.68;;;;;;;33.37;17.49;101922.25;6329428;22;20038;-78
2022/05/02 09:00:09;;;;;;;14.05;9.95;;;;;;;34.06;17.07;101918.66;6309182;22;20013;-78
2022/05/02 09:02:50;;;;;;;10.82;9.35;;;;;;;32.26;17.76;101920.03;6329610;22;20006;-78
2022/05/02 09:05:18;;;;;;;11.10;9.95;;;;;;;31.82;17.59;101926.13;6336460;22;20002;-78
2022/05/02 09:08:07;;;;;;;14.40;10.20;;;;;;;32.43;18.57;101916.34;6329393;22;20039;-78
2022/05/02 09:11:08;;;;;;;12.45;8.82;;;;;;;33.37;17.88;101916.72;6336408;22;20419;-78
2022/05/02 09:14:08;;;;;;;10.57;9.48;;;;;;;34.46;16.37;101920.72;6312451;22;20025;-77
2022/05/02 09:17:02;;;;;;;10.90;9.20;;;;;;;33.94;14.87;101920.63;6336598;22;20003;-78
2022/05/02 09:20:00;;;;;;;17.55;10.60;;;;;;;34.35;16.94;101922.34;6329399;22;20015;-77
2022/05/02 09:22:51;;;;;;;13.25;9.82;;;;;;;34.35;16.54;101914.84;6308666;22;20044;-77
2022/05/02 09:25:57;;;;;;;12.18;9.38;;;;;;;33.92;17.47;101917.41;6301924;22;20511;-78
2022/05/02 09:29:01;;;;;;;15.15;10.73;;;;;;;33.25;16.99;101911.09;6308672;22;20335;-78
2022/05/02 09:31:58;;;;;;;10.60;9.50;;;;;;;33.57;16.46;101901.16;6323184;22;20056;-78
2022/05/02 09:34:47;;;;;;;11.90;9.85;;;;;;;33.67;16.36;101900.69;6308587;22;20403;-78
2022/05/02 09:37:21;;;;;;;12.95;9.20;;;;;;;32.56;16.62;101904.19;6329438;22;20533;-76
2022/05/02 09:39:48;;;;;;;11.02;8.60;;;;;;;31.97;15.98;101906.16;6336614;22;20006;-76
2022/05/02 09:42:16;;;;;;;13.18;8.40;;;;;;;30.61;16.50;101909.63;6336173;22;20007;-77
2022/05/02 09:51:21;;;;;;;11.05;9.32;;;;;;;32.35;17.60;101886.75;6329351;22;20014;-78
2022/05/02 09:53:52;;;;;;;11.15;9.90;;;;;;;32.04;17.21;101890.66;6336918;22;20010;-77
2022/05/02 09:59:48;;;;;;;10.90;9.35;;;;;;;30.19;18.35;101882.44;6337534;22;20022;-78
2022/05/02 10:02:20;;;;;;;12.95;9.32;;;;;;;29.01;20.48;101885.88;6330814;22;20010;-77
2022/05/02 10:05:05;;;;;;;10.05;8.50;;;;;;;28.40;20.08;101880.97;6309626;22;20140;-78
2022/05/02 10:07:36;;;;;;;9.75;8.68;;;;;;;27.77;20.57;101883.31;6330439;22;20462;-78
2022/05/02 10:10:10;;;;;;;9.35;7.50;;;;;;;27.44;21.50;101873.47;6337443;22;20316;-79
2022/05/02 10:12:46;;;;;;;12.05;9.52;;;;;;;27.60;20.15;101876.75;6330475;22;20018;-78
2022/05/02 10:15:42;;;;;;;13.38;9.18;;;;;;;28.26;20.93;101879.03;6337411;22;20002;-78
2022/05/02 10:18:10;;;;;;;11.18;8.95;;;;;;;29.49;19.60;101880.56;6335674;22;20485;-78
2022/05/02 10:20:51;;;;;;;10.30;8.98;;;;;;;29.44;19.59;101879.81;6332911;22;20013;-78
2022/05/02 10:23:23;;;;;;;11.00;8.95;;;;;;;29.58;18.61;101878.63;6309534;22;20017;-78
2022/05/02 10:26:08;;;;;;;10.57;8.67;;;;;;;28.97;19.63;101874.69;6303144;22;20010;-78
2022/05/02 10:29:15;;;;;;;10.68;8.07;;;;;;;27.19;21.73;101873.94;6337197;22;20048;-76
2022/05/02 10:31:46;;;;;;;10.35;9.25;;;;;;;25.88;22.86;101864.47;6277277;22;20021;-78
2022/05/02 10:34:14;;;;;;;9.52;8.52;;;;;;;25.50;22.12;101871.72;6337208;22;20009;-78
2022/05/02 10:36:42;;;;;;;11.30;8.98;;;;;;;25.97;23.13;101864.66;6302967;22;20011;-78
2022/05/02 10:39:24;;;;;;;14.18;9.63;;;;;;;26.45;22.29;101865.44;6336945;22;20007;-78
2022/05/02 10:41:56;;;;;;;10.50;8.18;;;;;;;26.50;22.24;101854.38;6332973;22;20003;-79
2022/05/02 10:44:27;;;;;;;12.45;9.65;;;;;;;26.32;22.99;101855.16;6336925;22;20029;-78
2022/05/02 10:47:01;;;;;;;11.07;9.30;;;;;;;26.25;23.43;101853.59;6336985;22;20003;-78
2022/05/02 10:53:08;;;;;;;12.48;9.60;;;;;;;25.59;23.56;101853.53;6337133;22;20442;-78
2022/05/02 10:55:38;;;;;;;13.75;10.05;;;;;;;25.28;24.24;101850.28;6302858;22;20003;-78
2022/05/02 10:58:06;;;;;;;11.45;9.02;;;;;;;26.03;23.51;101847.88;6335646;22;20045;-78
2022/05/02 11:01:05;;;;;;;10.20;8.55;;;;;;;27.11;22.73;101839.72;6330146;22;20011;-78
2022/05/02 11:03:44;;;;;;;11.88;9.07;;;;;;;26.59;22.61;101840.78;6292408;22;20006;-78
2022/05/02 11:06:30;;;;;;;13.82;9.10;;;;;;;27.28;22.67;101826.22;6330212;22;20022;-78
2022/05/02 11:09:01;;;;;;;13.63;9.57;;;;;;;28.88;19.89;101839.94;6309365;22;20003;-79
2022/05/02 11:11:45;;;;;;;10.38;9.25;;;;;;;29.24;20.78;101834.34;6331884;22;20002;-77
2022/05/02 11:14:36;;;;;;;12.38;9.10;;;;;;;28.75;20.41;101835.28;6337062;22;20055;-78
2022/05/02 11:17:14;;;;;;;12.82;9.35;;;;;;;27.77;21.27;101842.09;6296626;22;20076;-78
2022/05/02 11:22:37;;;;;;;11.25;8.60;;;;;;;27.35;22.45;101825.81;6336949;22;20343;-79
2022/05/02 11:25:06;;;;;;;10.45;8.07;;;;;;;28.27;20.08;101835.84;6330148;22;20722;-78
2022/05/02 11:28:07;;;;;;;11.65;9.25;;;;;;;29.79;19.01;101829.25;6337037;22;20060;-79
2022/05/02 11:31:00;;;;;;;11.18;8.50;;;;;;;30.57;18.19;101828.56;6330236;22;20340;-79
2022/05/02 11:33:37;;;;;;;11.65;8.60;;;;;;;30.57;18.19;101823.84;6336850;22;20309;-77
2022/05/02 11:36:05;;;;;;;13.20;9.90;;;;;;;29.48;19.65;101817.44;6302753;22;20478;-76
2022/05/02 11:38:40;;;;;;;12.07;8.70;;;;;;;29.38;20.60;101817.69;6337045;22;19999;-78
2022/05/02 11:41:06;;;;;;;15.85;9.38;;;;;;;29.59;19.08;101816.03;6330456;22;20455;-77
2022/05/02 11:43:36;;;;;;;11.90;9.17;;;;;;;29.81;18.66;101809.63;6336485;22;19999;-78
2022/05/02 11:46:22;;;;;;;9.50;8.38;;;;;;;30.13;17.77;101811.19;6336927;22;20002;-78
2022/05/02 11:49:12;;;;;;;9.48;8.45;;;;;;;30.68;18.63;101814.13;6329912;22;20009;-77
2022/05/02 11:51:48;;;;;;;10.43;8.32;;;;;;;30.10;18.92;101818.16;6336728;22;20010;-77
2022/05/02 11:54:28;;;;;;;13.50;9.68;;;;;;;29.39;19.04;101809.09;6329992;22;20482;-77
2022/05/02 11:57:11;;;;;;;12.90;9.50;;;;;;;29.21;18.84;101812.94;6336792;22;20013;-77
2022/05/02 12:00:11;;;;;;;13.32;9.35;;;;;;;28.27;20.50;101805.56;6330106;22;20351;-78
2022/05/02 12:02:36;;;;;;;12.13;9.35;;;;;;;26.95;21.32;101808.13;6336757;22;20013;-76
2022/05/02 12:08:36;;;;;;;12.82;10.10;;;;;;;26.98;21.76;101799.28;6336844;22;20119;-78
2022/05/02 12:11:09;;;;;;;13.85;11.15;;;;;;;26.94;21.58;101812.81;6330158;22;20015;-78
2022/05/02 12:13:36;;;;;;;12.10;9.77;;;;;;;26.33;22.32;101807.44;6336797;22;20006;-78
2022/05/02 12:16:10;;;;;;;14.02;10.90;;;;;;;25.45;23.15;101793.16;6329146;22;20011;-78
2022/05/02 12:18:55;;;;;;;13.77;10.25;;;;;;;24.93;24.81;101783.78;6308893;22;20009;-78
2022/05/02 12:21:38;;;;;;;14.85;10.20;;;;;;;25.19;24.49;101789.06;6332952;22;20474;-78
2022/05/02 12:24:05;;;;;;;12.15;10.32;;;;;;;26.28;24.28;101788.28;6336790;22;20438;-78
2022/05/02 12:26:33;;;;;;;12.82;10.00;;;;;;;27.64;21.55;101781.59;6308912;22;20368;-77
2022/05/02 12:29:04;;;;;;;12.55;9.68;;;;;;;28.40;20.72;101776.41;6302657;22;20014;-78